createdAt,value
2022-09-28T00:02:24.000Z,4.17
2022-09-28T00:07:24.000Z,4.14
2022-09-28T00:12:24.000Z,4.21
2022-09-28T00:17:24.000Z,4.06
2022-09-28T00:22:24.000Z,4.09
2022-09-28T00:27:25.000Z,3.91
2022-09-28T00:32:24.000Z,3.83
2022-09-28T00:37:24.000Z,3.65
2022-09-28T00:42:25.000Z,3.57
2022-09-28T00:47:25.000Z,3.37
2022-09-28T00:52:25.000Z,3.27
2022-09-28T00:57:24.000Z,3.08
2022-09-28T01:02:25.000Z,2.94
2022-09-28T01:07:24.000Z,2.95
2022-09-28T01:12:24.000Z,2.75
2022-09-28T01:22:24.000Z,2.67
2022-09-28T01:27:24.000Z,2.62
2022-09-28T01:32:25.000Z,2.66
2022-09-28T01:37:24.000Z,2.68
2022-09-28T01:42:24.000Z,2.58
2022-09-28T01:47:24.000Z,2.48
2022-09-28T01:52:24.000Z,2.4
2022-09-28T01:57:24.000Z,2.28
2022-09-28T02:02:24.000Z,2.31
2022-09-28T02:07:24.000Z,2.18
2022-09-28T02:12:24.000Z,2.17
2022-09-28T02:17:24.000Z,2.12
2022-09-28T02:22:24.000Z,2.09
2022-09-28T02:27:24.000Z,2.09
2022-09-28T02:32:24.000Z,2.12
2022-09-28T02:37:24.000Z,2.12
2022-09-28T02:42:25.000Z,2.1
2022-09-28T02:47:24.000Z,2.09
2022-09-28T02:52:25.000Z,1.99
2022-09-28T02:57:24.000Z,1.98
2022-09-28T03:02:24.000Z,2.01
2022-09-28T03:07:24.000Z,1.94
2022-09-28T03:12:24.000Z,1.88
2022-09-28T03:17:24.000Z,1.92
2022-09-28T03:22:24.000Z,1.98
2022-09-28T03:27:24.000Z,2.32
2022-09-28T03:32:25.000Z,2.47
2022-09-28T03:37:24.000Z,2.14
2022-09-28T03:42:25.000Z,2.12
2022-09-28T03:47:25.000Z,1.89
2022-09-28T03:52:24.000Z,2.04
2022-09-28T03:57:25.000Z,1.96
2022-09-28T04:02:24.000Z,1.79
2022-09-28T04:12:25.000Z,2.18
2022-09-28T04:17:24.000Z,1.88
2022-09-28T04:22:24.000Z,2.05
2022-09-28T04:27:24.000Z,1.99
2022-09-28T04:32:24.000Z,1.91
2022-09-28T04:37:24.000Z,2.8
2022-09-28T04:42:24.000Z,1.96
2022-09-28T04:47:24.000Z,1.93
2022-09-28T04:52:24.000Z,1.9
2022-09-28T04:57:24.000Z,2.01
2022-09-28T05:02:24.000Z,2.15
2022-09-28T05:07:25.000Z,2.05
2022-09-28T05:12:24.000Z,2.11
2022-09-28T05:17:25.000Z,1.97
2022-09-28T05:22:24.000Z,2.18
2022-09-28T05:27:24.000Z,2.19
2022-09-28T05:32:24.000Z,2.09
2022-09-28T05:37:25.000Z,2.12
2022-09-28T05:42:24.000Z,2.2
2022-09-28T05:47:24.000Z,2.06
2022-09-28T05:52:25.000Z,1.97
2022-09-28T05:57:24.000Z,1.98
2022-09-28T06:02:25.000Z,1.93
2022-09-28T06:07:25.000Z,4.38
2022-09-28T06:12:24.000Z,1.95
2022-09-28T06:17:25.000Z,1.88
2022-09-28T06:22:24.000Z,2.18
2022-09-28T06:27:24.000Z,1.95
2022-09-28T06:32:24.000Z,2.13
2022-09-28T06:37:24.000Z,2.15
2022-09-28T06:42:25.000Z,2.21
2022-09-28T06:47:25.000Z,2.06
2022-09-28T06:52:24.000Z,2.34
2022-09-28T06:57:24.000Z,1.9
2022-09-28T07:02:25.000Z,1.91
2022-09-28T07:07:24.000Z,2.66
2022-09-28T07:12:24.000Z,2.38
2022-09-28T07:17:25.000Z,1.79
2022-09-28T07:22:24.000Z,2.12
2022-09-28T07:27:24.000Z,1.84
2022-09-28T07:32:25.000Z,1.64
2022-09-28T07:37:24.000Z,1.87
2022-09-28T07:42:25.000Z,1.61
2022-09-28T07:47:24.000Z,1.52
2022-09-28T07:52:24.000Z,1.7
2022-09-28T07:57:25.000Z,1.81
2022-09-28T08:02:24.000Z,1.92
2022-09-28T08:07:25.000Z,3.3
2022-09-28T08:12:24.000Z,1.83
2022-09-28T08:17:25.000Z,1.69
2022-09-28T08:22:24.000Z,1.65
2022-09-28T08:27:24.000Z,2.08
2022-09-28T08:32:25.000Z,2.99
2022-09-28T08:37:24.000Z,3.86
2022-09-28T08:42:24.000Z,2
2022-09-28T08:47:24.000Z,2.07
2022-09-28T08:52:25.000Z,2.04
2022-09-28T08:57:25.000Z,1.68
2022-09-28T09:02:25.000Z,1.85
2022-09-28T09:07:24.000Z,1.99
2022-09-28T09:12:24.000Z,2.2
2022-09-28T09:17:25.000Z,1.85
2022-09-28T09:27:24.000Z,1.65
2022-09-28T09:32:24.000Z,1.69
2022-09-28T09:37:24.000Z,1.7
2022-09-28T09:42:25.000Z,1.83
2022-09-28T09:47:25.000Z,1.63
2022-09-28T09:52:25.000Z,1.7
2022-09-28T09:57:25.000Z,2.07
2022-09-28T10:02:24.000Z,2.03
2022-09-28T10:07:25.000Z,3.72
2022-09-28T10:12:25.000Z,1.98
2022-09-28T10:17:24.000Z,2.01
2022-09-28T10:22:24.000Z,2.57
2022-09-28T10:27:24.000Z,2.02
2022-09-28T10:32:24.000Z,2.17
2022-09-28T10:37:25.000Z,2.48
2022-09-28T10:42:24.000Z,2.52
2022-09-28T10:47:24.000Z,4.15
2022-09-28T10:52:24.000Z,2.94
2022-09-28T10:57:25.000Z,2.9
2022-09-28T11:02:24.000Z,2.99
2022-09-28T11:12:24.000Z,3.17
2022-09-28T11:17:24.000Z,3.61
2022-09-28T11:22:25.000Z,3.49
2022-09-28T11:27:24.000Z,3.62
2022-09-28T11:32:25.000Z,3.66
2022-09-28T11:37:24.000Z,3.87
2022-09-28T11:42:24.000Z,3.6
2022-09-28T11:47:25.000Z,3.6
2022-09-28T11:52:25.000Z,3.72
2022-09-28T11:57:25.000Z,3.68
2022-09-28T12:02:25.000Z,3.74
2022-09-28T12:07:25.000Z,3.52
2022-09-28T12:12:25.000Z,3.63
2022-09-28T12:17:24.000Z,3.51
2022-09-28T12:22:24.000Z,3.72
2022-09-28T12:27:25.000Z,3.52
2022-09-28T12:32:24.000Z,3.34
2022-09-28T12:37:25.000Z,3.34
2022-09-28T12:42:24.000Z,3.42
2022-09-28T12:47:25.000Z,3.66
2022-09-28T12:52:24.000Z,4.16
2022-09-28T12:57:25.000Z,4.29
2022-09-28T13:02:25.000Z,4.4
2022-09-28T13:07:25.000Z,4.66
2022-09-28T13:12:25.000Z,4.78
2022-09-28T13:17:24.000Z,4.6
2022-09-28T13:22:25.000Z,31.17
2022-09-28T13:27:24.000Z,4.57
2022-09-28T13:32:24.000Z,4.29
2022-09-28T13:37:24.000Z,4.08
2022-09-28T13:42:25.000Z,4.35
2022-09-28T13:47:24.000Z,4.54
2022-09-28T13:52:24.000Z,4.28
2022-09-28T13:57:24.000Z,5.33
2022-09-28T14:02:24.000Z,4.3
2022-09-28T14:07:25.000Z,4.27
2022-09-28T14:12:24.000Z,4.31
2022-09-28T14:17:24.000Z,3.83
2022-09-28T14:22:25.000Z,3.68
2022-09-28T14:27:24.000Z,5.52
2022-09-28T14:32:24.000Z,4.38
2022-09-28T14:37:24.000Z,4.54
2022-09-28T14:42:24.000Z,4.62
2022-09-28T14:47:24.000Z,4.2
2022-09-28T14:52:24.000Z,3.81
2022-09-28T14:57:24.000Z,3.71
2022-09-28T15:02:24.000Z,4.33
2022-09-28T15:07:25.000Z,4
2022-09-28T15:12:24.000Z,4.16
2022-09-28T15:17:24.000Z,4.23
2022-09-28T15:22:25.000Z,4.24
2022-09-28T15:27:24.000Z,4.7
2022-09-28T15:32:24.000Z,5.47
2022-09-28T15:37:25.000Z,6.65
2022-09-28T15:42:24.000Z,7.1
2022-09-28T15:47:25.000Z,7.11
2022-09-28T15:52:25.000Z,6.94
2022-09-28T15:57:24.000Z,6.72
2022-09-28T16:02:24.000Z,7.08
2022-09-28T16:07:24.000Z,6.82
2022-09-28T16:12:25.000Z,6.98
2022-09-28T16:17:24.000Z,7.21
2022-09-28T16:22:24.000Z,6.99
2022-09-28T16:27:24.000Z,7.13
2022-09-28T16:32:25.000Z,7
2022-09-28T16:37:24.000Z,6.71
2022-09-28T16:47:24.000Z,6.46
2022-09-28T16:52:25.000Z,6.57
2022-09-28T16:57:24.000Z,6.61
2022-09-28T17:02:25.000Z,6.79
2022-09-28T17:07:24.000Z,7.14
2022-09-28T17:12:25.000Z,6.93
2022-09-28T17:17:24.000Z,7.26
2022-09-28T17:22:25.000Z,7.74
2022-09-28T17:27:25.000Z,10.49
2022-09-28T17:32:24.000Z,10.54
2022-09-28T17:37:24.000Z,10.26
2022-09-28T17:42:24.000Z,10.32
2022-09-28T17:47:24.000Z,10.21
2022-09-28T17:52:25.000Z,10.22
2022-09-28T17:57:24.000Z,10.34
2022-09-28T18:02:24.000Z,9.61
2022-09-28T18:07:25.000Z,9.93
2022-09-28T18:12:24.000Z,7.67
2022-09-28T18:17:24.000Z,5.8
2022-09-28T18:22:24.000Z,5.01
2022-09-28T18:27:25.000Z,5.33
2022-09-28T18:32:24.000Z,5.75
2022-09-28T18:37:24.000Z,5.82
2022-09-28T18:42:24.000Z,5.11
2022-09-28T18:47:25.000Z,4.85
2022-09-28T18:52:25.000Z,4.7
2022-09-28T18:57:24.000Z,4.62
2022-09-28T19:02:24.000Z,4.66
2022-09-28T19:07:25.000Z,4.87
2022-09-28T19:12:24.000Z,4.84
2022-09-28T19:17:24.000Z,5.06
2022-09-28T19:22:24.000Z,5.22
2022-09-28T19:27:25.000Z,5.22
2022-09-28T19:32:25.000Z,5.32
2022-09-28T19:37:24.000Z,5.97
2022-09-28T19:42:24.000Z,5.35
2022-09-28T19:47:24.000Z,5.52
2022-09-28T19:52:25.000Z,5.79
2022-09-28T19:57:24.000Z,5.38
2022-09-28T20:02:25.000Z,5.32
2022-09-28T20:07:24.000Z,5.39
2022-09-28T20:12:24.000Z,5.46
2022-09-28T20:17:24.000Z,5.31
2022-09-28T20:22:24.000Z,5.25
2022-09-28T20:27:25.000Z,5.31
2022-09-28T20:32:25.000Z,5.56
2022-09-28T20:37:24.000Z,5.66
2022-09-28T20:42:25.000Z,5.91
2022-09-28T20:47:24.000Z,5.93
2022-09-28T20:52:24.000Z,6.9
2022-09-28T20:57:25.000Z,6.47
2022-09-28T21:02:24.000Z,6.95
2022-09-28T21:07:24.000Z,9.98
2022-09-28T21:12:24.000Z,11.64
2022-09-28T21:17:24.000Z,11.99
2022-09-28T21:22:25.000Z,12.16
2022-09-28T21:27:24.000Z,13.07
2022-09-28T21:32:25.000Z,11.58
2022-09-28T21:37:25.000Z,10.69
2022-09-28T21:47:25.000Z,11.26
2022-09-28T21:52:25.000Z,10.36
2022-09-28T21:57:24.000Z,9.77
2022-09-28T22:02:24.000Z,9.13
2022-09-28T22:07:24.000Z,8.64
2022-09-28T22:12:24.000Z,8.45
2022-09-28T22:17:24.000Z,8.46
2022-09-28T22:22:24.000Z,7.91
2022-09-28T22:27:24.000Z,7.65
2022-09-28T22:32:25.000Z,7.9
2022-09-28T22:37:25.000Z,7.95
2022-09-28T22:42:24.000Z,7.94
2022-09-28T22:47:24.000Z,7.69
2022-09-28T22:52:24.000Z,7.67
2022-09-28T22:57:24.000Z,7.45
2022-09-28T23:02:24.000Z,7.03
2022-09-28T23:07:24.000Z,7.14
2022-09-28T23:12:25.000Z,7
2022-09-28T23:17:25.000Z,6.87
2022-09-28T23:22:24.000Z,6.94
2022-09-28T23:27:25.000Z,6.71
2022-09-28T23:32:25.000Z,6.35
2022-09-28T23:37:25.000Z,6.5
2022-09-28T23:42:24.000Z,6.16
2022-09-28T23:47:25.000Z,6.37
2022-09-28T23:52:25.000Z,6.21
2022-09-28T23:57:24.000Z,6.09
